ΕΜΥ, Εθνική Μετεωρολογική Υπηρεσία - Δελτία Καιρού, Προγνώσεις

ΑΕΡΟΝΑΥΤΙΛΙΑ

GREEK AIRPORTS CODES

TAF LGAV 031100Z 0312/0412 01012KT 9999 FEW025 BECMG 0318/0320 VRB05KT BECMG 0407/0409 03015KT SCT030=

EUROPEAN AIRPORTS CODES

EKCH 031350Z AUTO 22006KT 9999 OVC044/// 17/08 Q1013 NOSIG=